Tincup, Colorado
Current Conditions -  °F | °C
As of 9:14 PM on Tuesday 27 Jan 2015 (Local Time) from K7BM Reporting Station
Clear Clear  
Wind Chill: 41°   Ceiling: Unl
Heat Index: 41°   Visibility: 10mi
Dew Point: 16°   Wind: 0mph
Humidity: 36%   Direction: NA
Pressure: 30.27"   Gusts: NA
Location:  38.7752°N, 106.586°W
Report Text: K7BM 280414Z AUTO 00000KT 10SM CLR 05/M09 A3027 RMK AO2
Loading
Personal Weather Stations






























Interactive Weather Map New forecast layout! Learn more

10-Day Weather Forecast

Advertisements
Track Severe Weather on mobile